Time;durP1;ratioP1;P1;durP2;ratioP2;P2;SDS_P1;SDS_P2;PMS_P1;PMS_P2;Temp;Humidity;BMP_temperature;BMP_pressure;BME280_temperature;BME280_humidity;BME280_pressure;Samples;Min_cycle;Max_cycle;Signal;HPM_P1;HPM_P2
2022/07/13 00:00:10;;;;;;;12.00;8.98;;;;;;;20.54;70.00;102038.53;5069775;28;20028;-73
2022/07/13 00:02:36;;;;;;;12.13;9.13;;;;;;;20.54;69.80;102043.81;5048085;28;20020;-74
2022/07/13 00:05:01;;;;;;;13.02;8.38;;;;;;;20.54;70.05;102041.16;5072606;28;20491;-74
2022/07/13 00:07:26;;;;;;;11.32;9.27;;;;;;;20.54;69.54;102046.47;5069652;28;20020;-74
2022/07/13 00:09:52;;;;;;;12.45;8.93;;;;;;;20.53;68.63;102045.63;5074315;28;20107;-74
2022/07/13 00:12:17;;;;;;;11.57;8.60;;;;;;;20.54;68.65;102031.47;5072119;28;20486;-73
2022/07/13 00:14:42;;;;;;;11.13;8.55;;;;;;;20.55;69.85;102032.31;5069631;28;20379;-74
2022/07/13 00:17:08;;;;;;;12.55;9.00;;;;;;;20.54;68.02;102031.47;5064507;28;20021;-74
2022/07/13 00:19:33;;;;;;;12.27;8.55;;;;;;;20.52;68.42;102021.88;5069340;28;20379;-74
2022/07/13 00:21:58;;;;;;;10.23;8.38;;;;;;;20.52;68.86;102014.81;5070151;28;20373;-74
2022/07/13 00:24:24;;;;;;;9.80;8.32;;;;;;;20.52;69.06;102004.25;5073149;28;20111;-74
2022/07/13 00:26:49;;;;;;;9.77;8.65;;;;;;;20.49;68.59;101991.19;5064923;28;20107;-74
2022/07/13 00:29:14;;;;;;;14.05;8.77;;;;;;;20.46;68.38;101997.47;5068655;28;20463;-74
2022/07/13 00:31:41;;;;;;;10.20;8.27;;;;;;;20.46;68.41;101992.19;5070769;28;20096;-74
2022/07/13 00:34:07;;;;;;;11.48;8.48;;;;;;;20.44;68.64;101983.47;5067878;28;20028;-74
2022/07/13 00:36:32;;;;;;;9.48;7.85;;;;;;;20.44;68.69;101983.47;5069579;28;20598;-74
2022/07/13 00:38:57;;;;;;;10.88;8.60;;;;;;;20.43;69.11;101979.13;5069047;28;20031;-74
2022/07/13 00:41:22;;;;;;;10.02;8.27;;;;;;;20.41;68.54;101978.34;5070137;28;20041;-74
2022/07/13 00:43:48;;;;;;;11.05;8.65;;;;;;;20.40;68.60;101973.97;5069601;28;20028;-74
2022/07/13 00:46:14;;;;;;;12.65;8.75;;;;;;;20.38;69.44;101957.34;5065105;28;20025;-73
2022/07/13 00:48:39;;;;;;;10.13;8.40;;;;;;;20.36;68.49;101967.13;5066517;28;20028;-74
2022/07/13 00:51:05;;;;;;;13.30;8.52;;;;;;;20.34;69.13;101969.00;5069636;28;20030;-74
2022/07/13 00:53:35;;;;;;;10.77;8.73;;;;;;;20.32;69.39;101962.94;5050947;28;20028;-74
2022/07/13 00:56:01;;;;;;;11.60;8.77;;;;;;;20.30;69.34;101963.00;5069480;28;20107;-74
2022/07/13 00:58:26;;;;;;;10.95;8.00;;;;;;;20.29;70.17;101960.44;5065629;28;20677;-74
2022/07/13 01:00:52;;;;;;;10.55;8.50;;;;;;;20.28;70.63;101961.38;5071094;28;20107;-74
2022/07/13 01:03:17;;;;;;;12.65;8.73;;;;;;;20.25;70.69;101959.72;5071899;28;20034;-74
2022/07/13 01:05:43;;;;;;;11.20;8.48;;;;;;;20.22;70.94;101954.63;5063125;28;20033;-74
2022/07/13 01:08:10;;;;;;;12.25;8.60;;;;;;;20.19;71.02;101948.59;5066927;28;20051;-74
2022/07/13 01:10:36;;;;;;;10.82;8.93;;;;;;;20.14;71.03;101944.41;5070267;28;20059;-74
2022/07/13 01:13:01;;;;;;;11.55;9.15;;;;;;;20.10;70.84;101931.41;5069270;28;20153;-74
2022/07/13 01:15:26;;;;;;;11.68;9.35;;;;;;;20.06;70.91;101930.72;5062096;28;20491;-74
2022/07/13 01:17:52;;;;;;;13.95;9.48;;;;;;;20.06;71.05;101946.56;5065466;28;20020;-74
2022/07/13 01:20:18;;;;;;;10.45;9.07;;;;;;;20.05;71.01;101939.56;5067445;28;20464;-74
2022/07/13 01:22:51;;;;;;;10.93;9.27;;;;;;;20.05;69.72;101936.94;5068041;28;20446;-74
2022/07/13 01:25:18;;;;;;;12.40;9.18;;;;;;;20.05;70.54;101939.56;5065400;28;20031;-74
2022/07/13 01:27:46;;;;;;;11.52;9.32;;;;;;;20.05;70.33;101934.28;5063837;28;20044;-74
2022/07/13 01:30:12;;;;;;;12.77;8.57;;;;;;;20.05;70.78;101938.72;5068942;28;20029;-74
2022/07/13 01:32:56;;;;;;;10.70;9.05;;;;;;;20.04;70.22;101932.56;5068305;28;20104;-74
2022/07/13 01:35:24;;;;;;;10.73;8.98;;;;;;;20.03;71.37;101933.50;5061931;28;20041;-74
2022/07/13 01:37:51;;;;;;;12.52;9.35;;;;;;;20.01;71.26;101938.88;5068057;28;20043;-74
2022/07/13 01:40:16;;;;;;;11.77;9.48;;;;;;;20.02;71.62;101934.44;5068374;28;20036;-74
2022/07/13 01:42:46;;;;;;;11.73;9.05;;;;;;;20.00;71.45;101931.00;5068569;28;20068;-74
2022/07/13 01:45:13;;;;;;;11.60;9.40;;;;;;;19.98;71.72;101928.44;5069308;28;20055;-74
2022/07/13 01:47:40;;;;;;;12.27;9.70;;;;;;;19.98;71.42;101932.88;5071160;28;20024;-74
2022/07/13 01:50:07;;;;;;;12.02;9.40;;;;;;;19.96;72.14;101930.31;5068931;28;20024;-74
2022/07/13 01:52:33;;;;;;;12.25;9.40;;;;;;;19.95;72.35;101922.47;5067551;28;20483;-74
2022/07/13 01:54:59;;;;;;;12.40;9.70;;;;;;;19.93;72.09;101925.16;5063722;28;20024;-74
2022/07/13 01:57:24;;;;;;;13.98;9.73;;;;;;;19.91;71.56;101927.03;5066627;28;20381;-74
2022/07/13 01:59:51;;;;;;;12.77;9.88;;;;;;;19.89;72.02;101922.75;5066384;28;20020;-74
2022/07/13 02:02:16;;;;;;;11.85;9.88;;;;;;;19.86;72.41;101914.00;5067309;28;20020;-74
2022/07/13 02:04:41;;;;;;;12.57;9.98;;;;;;;19.85;72.33;101916.75;5064116;28;20098;-73
2022/07/13 02:07:07;;;;;;;10.82;9.38;;;;;;;19.84;71.94;101926.44;5066843;28;20068;-74
2022/07/13 02:09:32;;;;;;;13.00;10.18;;;;;;;19.82;72.09;101920.34;5071321;28;20119;-74
2022/07/13 02:11:58;;;;;;;10.95;9.30;;;;;;;19.80;72.16;101914.31;5066815;28;20028;-73
2022/07/13 02:14:23;;;;;;;14.55;9.52;;;;;;;19.78;71.92;101913.53;5067381;28;20387;-74
2022/07/13 02:16:48;;;;;;;14.90;10.07;;;;;;;19.78;72.20;101910.03;5066133;28;20031;-74
2022/07/13 02:19:13;;;;;;;12.45;10.13;;;;;;;19.77;71.65;101909.19;5062790;28;20048;-74
2022/07/13 02:21:39;;;;;;;10.95;9.35;;;;;;;19.76;72.00;101910.09;5067376;28;20524;-74
2022/07/13 02:24:04;;;;;;;12.73;9.55;;;;;;;19.74;72.55;101898.75;5067268;28;20035;-74
2022/07/13 02:26:30;;;;;;;12.55;10.35;;;;;;;19.74;72.36;101909.31;5063455;28;20031;-73
2022/07/13 02:28:55;;;;;;;12.35;9.63;;;;;;;19.74;72.47;101896.13;5068259;28;20222;-74
2022/07/13 02:31:21;;;;;;;12.13;9.60;;;;;;;19.74;71.86;101888.19;5064791;28;20066;-74
2022/07/13 02:33:46;;;;;;;12.50;9.68;;;;;;;19.73;72.62;101886.50;5067364;28;20107;-74
2022/07/13 02:36:11;;;;;;;11.15;9.52;;;;;;;19.72;73.21;101897.97;5064838;28;20024;-74
2022/07/13 02:38:36;;;;;;;13.40;9.57;;;;;;;19.72;73.03;101895.34;5065878;28;20146;-74
2022/07/13 02:41:02;;;;;;;13.10;9.82;;;;;;;19.70;73.20;101898.06;5066163;28;20051;-74
2022/07/13 02:43:27;;;;;;;11.90;9.55;;;;;;;19.69;73.69;101890.19;5064320;28;20035;-74
2022/07/13 02:45:53;;;;;;;11.63;9.25;;;;;;;19.68;74.13;101883.19;5065444;28;20082;-74
2022/07/13 02:48:18;;;;;;;12.27;9.88;;;;;;;19.66;73.23;101883.28;5063745;28;20016;-74
2022/07/13 02:50:44;;;;;;;12.13;10.25;;;;;;;19.65;73.32;101880.69;5051327;28;20029;-74
2022/07/13 02:53:09;;;;;;;12.20;9.98;;;;;;;19.65;73.24;101872.78;5067632;28;20028;-74
2022/07/13 02:55:34;;;;;;;13.13;10.02;;;;;;;19.64;73.12;101876.38;5064070;28;20071;-74
2022/07/13 02:58:00;;;;;;;12.02;9.32;;;;;;;19.64;72.56;101865.81;5067105;28;20033;-74
2022/07/13 03:00:25;;;;;;;13.98;9.32;;;;;;;19.63;71.97;101864.94;5066709;28;20063;-74
2022/07/13 03:02:51;;;;;;;11.38;8.93;;;;;;;19.64;72.14;101868.47;5064621;28;20091;-74
2022/07/13 03:05:16;;;;;;;11.95;9.35;;;;;;;19.64;71.83;101865.81;5067080;28;20100;-74
2022/07/13 03:07:41;;;;;;;13.95;9.50;;;;;;;19.64;72.90;101876.38;5065417;28;20028;-74
2022/07/13 03:10:07;;;;;;;11.38;9.00;;;;;;;19.63;72.96;101880.78;5065997;28;20024;-74
2022/07/13 03:12:33;;;;;;;10.45;8.90;;;;;;;19.63;73.11;101883.44;5064058;28;20060;-74
2022/07/13 03:14:59;;;;;;;13.40;8.90;;;;;;;19.62;72.88;101894.06;5069154;28;20139;-74
2022/07/13 03:17:24;;;;;;;11.40;8.82;;;;;;;19.62;72.74;101886.16;5066961;28;20541;-74
2022/07/13 03:19:50;;;;;;;12.15;9.10;;;;;;;19.60;72.71;101886.22;5069910;28;20085;-74
2022/07/13 03:22:15;;;;;;;12.48;8.57;;;;;;;19.60;72.43;101874.81;5062938;28;20086;-74
2022/07/13 03:24:40;;;;;;;12.77;8.70;;;;;;;19.59;72.75;101873.94;5067016;28;20094;-74
2022/07/13 03:27:06;;;;;;;10.40;8.27;;;;;;;19.59;72.49;101867.81;5064208;28;20059;-74
2022/07/13 03:29:31;;;;;;;11.93;7.88;;;;;;;19.58;70.50;101863.47;5064110;28;20020;-74
2022/07/13 03:31:57;;;;;;;8.43;6.88;;;;;;;19.57;69.26;101859.94;5066627;28;20675;-74
2022/07/13 03:34:22;;;;;;;7.75;5.90;;;;;;;19.59;67.77;101858.09;5066222;28;20116;-74
2022/07/13 03:36:47;;;;;;;7.75;6.13;;;;;;;19.62;66.99;101855.31;5070788;28;20040;-74
2022/07/13 03:39:13;;;;;;;7.45;5.38;;;;;;;19.65;66.94;101847.25;5071126;28;20028;-74
2022/07/13 03:41:39;;;;;;;6.55;4.95;;;;;;;19.69;66.75;101858.50;5071870;28;20048;-74
2022/07/13 03:44:04;;;;;;;9.23;5.35;;;;;;;19.72;66.49;101858.38;5068335;28;20475;-75
2022/07/13 03:46:30;;;;;;;7.80;5.13;;;;;;;19.75;65.62;101849.44;5070811;28;20032;-74
2022/07/13 03:48:55;;;;;;;7.03;4.85;;;;;;;19.78;65.16;101854.56;5069104;28;20036;-74
2022/07/13 03:51:20;;;;;;;7.32;4.63;;;;;;;19.80;65.10;101850.94;5071513;28;20032;-74
2022/07/13 03:53:46;;;;;;;5.35;4.22;;;;;;;19.85;65.14;101853.34;5070242;28;20386;-74
2022/07/13 03:56:11;;;;;;;6.10;4.40;;;;;;;19.88;65.10;101847.09;5071388;28;20063;-74
2022/07/13 03:58:36;;;;;;;7.57;4.43;;;;;;;19.89;65.07;101838.25;5052835;28;20754;-73
2022/07/13 04:01:02;;;;;;;7.80;4.28;;;;;;;19.93;64.74;101843.28;5069084;28;20128;-74
2022/07/13 04:03:27;;;;;;;6.72;4.30;;;;;;;19.95;64.14;101853.78;5070186;28;20375;-74
2022/07/13 04:05:52;;;;;;;6.30;4.22;;;;;;;19.98;63.63;101848.38;5071789;28;20035;-74
2022/07/13 04:08:17;;;;;;;6.75;4.20;;;;;;;20.00;63.43;101852.63;5066111;28;20383;-74
2022/07/13 04:10:43;;;;;;;7.88;3.83;;;;;;;20.01;62.69;101840.25;5063940;28;20032;-74
2022/07/13 04:13:08;;;;;;;5.22;3.90;;;;;;;20.04;63.08;101852.50;5067285;28;20142;-74
2022/07/13 04:15:33;;;;;;;7.13;3.90;;;;;;;20.06;62.72;101851.47;5068229;28;20059;-74
2022/07/13 04:17:58;;;;;;;6.90;3.88;;;;;;;20.08;62.81;101854.88;5069852;28;20036;-74
2022/07/13 04:20:24;;;;;;;5.97;3.83;;;;;;;20.10;62.79;101847.75;5071505;28;20050;-74
2022/07/13 04:22:49;;;;;;;5.82;3.65;;;;;;;20.12;62.02;101837.97;5066380;28;20044;-74
2022/07/13 04:25:14;;;;;;;4.65;3.25;;;;;;;20.13;62.34;101842.31;5067926;28;20082;-74
2022/07/13 04:27:40;;;;;;;4.50;3.42;;;;;;;20.16;61.70;101831.56;5069243;28;20036;-74
2022/07/13 04:30:06;;;;;;;5.43;3.50;;;;;;;20.16;61.85;101836.84;5071839;28;20032;-74
2022/07/13 04:32:31;;;;;;;5.50;3.42;;;;;;;20.18;61.78;101834.16;5068763;28;20079;-74
2022/07/13 04:34:57;;;;;;;5.65;3.33;;;;;;;20.19;62.19;101830.59;5065229;28;20418;-74
2022/07/13 04:37:22;;;;;;;5.22;3.92;;;;;;;20.21;61.90;101833.13;5064402;28;20039;-74
2022/07/13 04:39:47;;;;;;;4.88;3.33;;;;;;;20.23;61.17;101831.28;5066453;28;20136;-74
2022/07/13 04:42:13;;;;;;;5.43;3.58;;;;;;;20.25;61.35;101829.41;5068486;28;20935;-74
2022/07/13 04:44:38;;;;;;;4.45;2.92;;;;;;;20.28;61.29;101823.97;5064384;28;20032;-74
2022/07/13 04:47:03;;;;;;;4.03;3.20;;;;;;;20.30;61.38;101827.41;5067261;28;20021;-74
2022/07/13 04:49:29;;;;;;;7.75;3.70;;;;;;;20.32;60.93;101826.38;5066483;28;20390;-74
2022/07/13 04:51:54;;;;;;;4.70;3.35;;;;;;;20.36;60.81;101826.22;5071590;28;20035;-74
2022/07/13 04:54:20;;;;;;;6.78;3.47;;;;;;;20.39;60.90;101836.63;5068755;28;20482;-74
2022/07/13 04:56:46;;;;;;;3.75;2.85;;;;;;;20.42;60.94;101837.31;5068315;28;20020;-74
2022/07/13 04:59:12;;;;;;;6.03;3.00;;;;;;;20.46;60.53;101828.31;5069334;28;20379;-74
2022/07/13 05:01:38;;;;;;;3.70;2.67;;;;;;;20.50;59.30;101834.28;5063596;28;20182;-74
2022/07/13 05:04:04;;;;;;;5.03;2.88;;;;;;;20.54;60.72;101827.03;5065553;28;20020;-74
2022/07/13 05:06:30;;;;;;;4.22;2.83;;;;;;;20.57;60.25;101832.16;5070429;28;20043;-74
2022/07/13 05:08:55;;;;;;;3.88;2.72;;;;;;;20.60;59.58;101829.38;5065306;28;20069;-74
2022/07/13 05:11:21;;;;;;;5.25;2.58;;;;;;;20.63;59.56;101827.41;5067710;28;20422;-74
2022/07/13 05:13:46;;;;;;;7.30;2.78;;;;;;;20.67;59.64;101821.97;5069840;28;20037;-74
2022/07/13 05:16:12;;;;;;;8.23;2.70;;;;;;;20.71;58.56;101821.72;5067652;28;20048;-74
2022/07/13 05:18:37;;;;;;;5.28;2.80;;;;;;;20.73;58.73;101814.56;5066730;28;20468;-74
2022/07/13 05:21:03;;;;;;;5.60;2.70;;;;;;;20.78;58.03;101816.97;5066535;28;20029;-74
2022/07/13 05:23:28;;;;;;;3.55;2.33;;;;;;;20.82;57.72;101817.69;5070535;28;20025;-73
2022/07/13 05:25:53;;;;;;;3.60;2.25;;;;;;;20.86;56.67;101813.94;5067554;28;20075;-74
2022/07/13 05:28:19;;;;;;;3.90;2.47;;;;;;;20.91;57.13;101817.19;5068349;28;20503;-74
2022/07/13 05:30:44;;;;;;;4.95;2.35;;;;;;;20.96;57.10;101825.72;5063719;28;20020;-73
2022/07/13 05:33:09;;;;;;;3.85;2.47;;;;;;;20.99;56.85;101822.94;5070176;28;20059;-74
2022/07/13 05:35:34;;;;;;;3.38;2.20;;;;;;;21.02;56.97;101812.16;5067339;28;20046;-74
2022/07/13 05:38:00;;;;;;;4.18;2.30;;;;;;;21.06;57.84;101815.50;5065853;28;20429;-74
2022/07/13 05:40:25;;;;;;;4.60;2.40;;;;;;;21.08;56.38;101819.78;5062704;28;20144;-74
2022/07/13 05:42:51;;;;;;;5.85;2.30;;;;;;;21.12;56.26;101830.19;5067486;28;20066;-74
2022/07/13 05:45:17;;;;;;;3.22;2.30;;;;;;;21.13;56.19;101827.44;5068432;28;20060;-74
2022/07/13 05:47:46;;;;;;;4.55;2.50;;;;;;;21.18;56.02;101835.16;5064237;28;20109;-74
2022/07/13 05:50:13;;;;;;;4.10;2.20;;;;;;;21.21;55.84;101845.53;5068286;28;20116;-74
2022/07/13 05:52:38;;;;;;;5.80;2.25;;;;;;;21.22;56.54;101841.97;5068801;28;20062;-74
2022/07/13 05:55:04;;;;;;;7.38;2.78;;;;;;;21.24;55.75;101848.03;5062398;28;20111;-74
2022/07/13 05:57:29;;;;;;;4.03;2.38;;;;;;;21.26;56.00;101843.50;5065396;28;20021;-74
2022/07/13 05:59:54;;;;;;;6.22;2.50;;;;;;;21.28;55.74;101844.28;5063185;28;20550;-74
2022/07/13 06:02:20;;;;;;;5.70;2.47;;;;;;;21.32;55.59;101843.19;5046100;28;20391;-74
2022/07/13 06:04:46;;;;;;;5.50;2.60;;;;;;;21.36;55.44;101850.00;5064238;28;20040;-74
2022/07/13 06:07:11;;;;;;;4.38;2.17;;;;;;;21.42;54.80;101853.25;5059156;28;20104;-74
2022/07/13 06:09:36;;;;;;;6.10;2.55;;;;;;;21.46;55.13;101857.44;5065722;28;20021;-74
2022/07/13 06:12:02;;;;;;;5.50;2.63;;;;;;;21.53;55.86;101848.19;5066753;28;20032;-74
2022/07/13 06:14:27;;;;;;;5.75;2.50;;;;;;;21.58;55.57;101843.50;5066632;28;20032;-74
2022/07/13 06:16:52;;;;;;;7.38;2.58;;;;;;;21.64;54.74;101843.19;5068169;28;20078;-74
2022/07/13 06:19:17;;;;;;;6.20;2.80;;;;;;;21.71;54.92;101848.13;5071699;28;20103;-73
2022/07/13 06:21:43;;;;;;;8.55;2.90;;;;;;;21.75;55.39;101844.38;5066424;28;20024;-74
2022/07/13 06:24:08;;;;;;;6.10;2.78;;;;;;;21.79;54.28;101845.91;5066140;28;20379;-74
2022/07/13 06:26:33;;;;;;;6.35;2.90;;;;;;;21.85;54.44;101845.56;5066381;28;20025;-74
2022/07/13 06:28:59;;;;;;;5.50;2.70;;;;;;;21.90;55.04;101848.78;5069462;28;20523;-74
2022/07/13 06:31:24;;;;;;;6.35;2.80;;;;;;;21.96;54.63;101843.13;5065738;28;20040;-74
2022/07/13 06:33:51;;;;;;;3.83;2.53;;;;;;;22.01;53.92;101848.16;5069493;28;20047;-74
2022/07/13 06:36:17;;;;;;;4.90;2.80;;;;;;;22.07;54.30;101849.59;5060440;28;20020;-74
2022/07/13 06:38:42;;;;;;;5.43;3.00;;;;;;;22.12;54.56;101843.06;5065072;28;20077;-74
2022/07/13 06:41:07;;;;;;;5.15;2.60;;;;;;;22.18;54.85;101846.31;5066328;28;20049;-74
2022/07/13 06:43:32;;;;;;;8.23;2.85;;;;;;;22.20;54.20;101845.31;5063008;28;20460;-74
2022/07/13 06:45:58;;;;;;;5.97;2.75;;;;;;;22.23;54.52;101834.50;5058862;28;20036;-74
2022/07/13 06:48:23;;;;;;;4.93;2.72;;;;;;;22.28;54.52;101835.09;5065881;28;20035;-74
2022/07/13 06:50:48;;;;;;;11.85;3.17;;;;;;;22.32;54.21;101827.78;5070452;28;20021;-74
2022/07/13 06:53:14;;;;;;;6.22;3.05;;;;;;;22.37;54.32;101824.88;5064484;28;20030;-74
2022/07/13 06:55:39;;;;;;;7.13;3.20;;;;;;;22.43;54.20;101827.19;5062234;28;20017;-74
2022/07/13 06:58:04;;;;;;;4.95;3.17;;;;;;;22.49;54.00;101834.78;5065693;28;20024;-73
2022/07/13 07:00:29;;;;;;;6.13;2.90;;;;;;;22.53;53.06;101835.44;5062070;28;20028;-74
2022/07/13 07:02:55;;;;;;;6.90;3.00;;;;;;;22.55;53.31;101837.03;5069150;28;20025;-74
2022/07/13 07:05:20;;;;;;;4.68;2.83;;;;;;;22.58;53.07;101831.53;5065060;28;20035;-74
2022/07/13 07:07:46;;;;;;;6.05;3.28;;;;;;;22.58;53.18;101842.16;5059387;28;20039;-74
2022/07/13 07:10:11;;;;;;;8.82;3.00;;;;;;;22.58;53.01;101839.50;5063265;28;20028;-74
2022/07/13 07:12:36;;;;;;;5.43;3.55;;;;;;;22.59;53.23;101841.22;5065746;28;20086;-74
2022/07/13 07:15:03;;;;;;;8.48;3.60;;;;;;;22.64;53.87;101837.44;5061757;28;20050;-74
2022/07/13 07:17:28;;;;;;;6.13;2.97;;;;;;;22.71;53.68;101844.06;5061927;28;20025;-74
2022/07/13 07:20:04;;;;;;;7.75;3.10;;;;;;;22.80;54.57;101843.50;5066399;28;20032;-74
2022/07/13 07:22:29;;;;;;;6.35;3.20;;;;;;;22.87;52.97;101844.84;5063306;28;20028;-74
2022/07/13 07:24:56;;;;;;;5.68;3.10;;;;;;;22.91;53.71;101834.00;5062400;28;20441;-74
2022/07/13 07:27:22;;;;;;;5.80;3.22;;;;;;;22.91;53.72;101834.00;5058793;28;20036;-74
2022/07/13 07:29:47;;;;;;;5.35;3.50;;;;;;;22.91;53.60;101834.00;5065558;28;20040;-74
2022/07/13 07:32:12;;;;;;;6.40;3.25;;;;;;;22.90;53.92;101825.19;5070922;28;20029;-74
2022/07/13 07:34:38;;;;;;;5.50;3.20;;;;;;;22.94;54.00;101841.78;5064636;28;20060;-74
2022/07/13 07:37:03;;;;;;;8.00;3.38;;;;;;;23.03;54.40;101833.25;5069201;28;20395;-74
2022/07/13 07:39:29;;;;;;;5.70;2.83;;;;;;;23.10;54.08;101829.25;5065410;28;20052;-74
2022/07/13 07:41:55;;;;;;;5.45;3.20;;;;;;;23.19;54.92;101834.00;5063907;28;20060;-74
2022/07/13 07:44:20;;;;;;;6.38;3.30;;;;;;;23.22;54.31;101826.81;5039753;28;20033;-74
2022/07/13 07:46:46;;;;;;;9.05;3.40;;;;;;;23.22;54.06;101832.97;5052775;28;20037;-74
2022/07/13 07:49:12;;;;;;;6.68;3.40;;;;;;;23.23;54.58;101833.84;5053894;28;20040;-74
2022/07/13 07:51:37;;;;;;;6.53;3.35;;;;;;;23.28;54.42;101829.06;5053334;28;20029;-73
2022/07/13 07:54:03;;;;;;;11.15;3.75;;;;;;;23.36;55.42;101832.09;5063259;28;20028;-74
2022/07/13 07:56:28;;;;;;;5.03;3.45;;;;;;;23.44;55.56;101821.81;5060248;28;20025;-74
2022/07/13 07:58:53;;;;;;;4.20;3.20;;;;;;;23.53;55.59;101819.50;5057466;28;20059;-74
2022/07/13 08:01:19;;;;;;;8.82;3.75;;;;;;;23.57;54.43;101821.03;5060536;28;20032;-74
2022/07/13 08:03:44;;;;;;;7.45;3.45;;;;;;;23.61;55.21;101820.72;5057489;28;20032;-74
2022/07/13 08:06:11;;;;;;;6.53;3.47;;;;;;;23.67;54.46;101827.44;5041022;28;20120;-74
2022/07/13 08:08:36;;;;;;;6.70;3.83;;;;;;;23.70;54.69;101826.34;5055174;28;20756;-74
2022/07/13 08:11:03;;;;;;;7.13;4.07;;;;;;;23.75;54.55;101825.09;5054185;28;20054;-74
2022/07/13 08:13:28;;;;;;;8.80;3.55;;;;;;;23.86;54.69;101834.19;5052241;28;20032;-74
2022/07/13 08:15:54;;;;;;;5.40;3.58;;;;;;;23.94;53.98;101831.84;5056410;28;20028;-74
2022/07/13 08:18:19;;;;;;;7.13;3.78;;;;;;;23.99;53.96;101837.75;5063106;28;20033;-74
2022/07/13 08:20:44;;;;;;;6.93;3.55;;;;;;;24.03;54.73;101828.63;5057687;28;20493;-74
2022/07/13 08:25:54;;;;;;;5.97;3.55;;;;;;;24.06;53.48;101828.41;5061007;28;20133;-73
2022/07/13 08:28:19;;;;;;;9.40;3.90;;;;;;;24.08;54.16;101829.13;5061910;28;20420;-74
2022/07/13 08:30:45;;;;;;;9.77;3.92;;;;;;;24.15;53.75;101834.03;5063604;28;20036;-74
2022/07/13 08:33:10;;;;;;;8.77;3.92;;;;;;;24.22;54.19;101835.34;5064590;28;20093;-75
2022/07/13 08:41:04;;;;;;;8.32;3.88;;;;;;;24.48;53.77;101833.56;5068052;28;20055;-74
2022/07/13 08:43:31;;;;;;;7.25;3.80;;;;;;;24.54;54.37;101838.44;5065779;28;20205;-74
2022/07/13 08:45:57;;;;;;;6.22;3.90;;;;;;;24.63;54.03;101842.25;5061388;28;20032;-74
2022/07/13 08:48:31;;;;;;;9.07;3.58;;;;;;;24.66;54.81;101836.72;5039935;28;20039;-74
2022/07/13 08:50:57;;;;;;;6.22;3.83;;;;;;;24.68;54.49;101832.16;5060078;28;20361;-74
2022/07/13 08:53:22;;;;;;;7.35;3.70;;;;;;;24.67;54.08;101835.78;5058310;28;20035;-75
2022/07/13 08:55:49;;;;;;;5.47;3.47;;;;;;;24.64;53.80;101838.63;5054767;28;20524;-74
2022/07/13 08:58:16;;;;;;;6.50;3.78;;;;;;;24.64;55.05;101846.63;5056827;28;20558;-75
2022/07/13 09:00:42;;;;;;;4.60;3.20;;;;;;;24.65;54.07;101850.16;5057512;28;20097;-74
2022/07/13 09:03:07;;;;;;;7.38;3.03;;;;;;;24.68;53.21;101853.44;5059540;28;20141;-74
2022/07/13 09:05:33;;;;;;;6.88;3.33;;;;;;;24.72;52.25;101839.97;5054934;28;20047;-74
2022/07/13 09:08:02;;;;;;;5.28;2.83;;;;;;;24.69;51.68;101836.50;5057040;28;20098;-74
2022/07/13 09:10:28;;;;;;;4.75;2.80;;;;;;;24.74;52.89;101846.88;5059726;28;20032;-74
2022/07/13 09:12:53;;;;;;;8.13;2.83;;;;;;;24.77;52.18;101840.47;5060906;28;20750;-74
2022/07/13 09:15:19;;;;;;;4.30;2.95;;;;;;;24.81;52.77;101847.28;5057212;28;20055;-74
2022/07/13 09:17:44;;;;;;;5.43;3.00;;;;;;;24.88;52.31;101851.22;5058298;28;20126;-74
2022/07/13 09:20:12;;;;;;;4.75;2.60;;;;;;;24.95;52.23;101857.78;5057825;28;20040;-74
2022/07/13 09:22:48;;;;;;;5.57;2.70;;;;;;;25.02;51.91;101852.91;5056202;28;20031;-74
2022/07/13 09:25:29;;;;;;;4.32;2.63;;;;;;;25.06;52.11;101858.84;5055891;28;20043;-75
2022/07/13 09:27:54;;;;;;;;;;;;;;;25.06;52.43;101856.19;5055284;28;20039;-74
2022/07/13 09:30:22;;;;;;;7.15;2.58;;;;;;;25.02;51.49;101849.38;5055503;28;19920;-74
2022/07/13 09:32:47;;;;;;;6.18;3.03;;;;;;;25.05;51.26;101851.84;5056463;28;20032;-74
2022/07/13 09:35:12;;;;;;;9.00;2.55;;;;;;;25.09;49.84;101850.66;5056411;28;20430;-74
2022/07/13 09:37:40;;;;;;;5.00;2.42;;;;;;;25.13;50.33;101862.75;5059519;28;20100;-74
2022/07/13 09:40:08;;;;;;;4.40;2.08;;;;;;;25.15;49.50;101868.84;5056263;28;20076;-74
2022/07/13 09:42:37;;;;;;;4.05;2.25;;;;;;;25.19;48.76;101865.00;5055428;28;20029;-74
2022/07/13 09:47:54;;;;;;;3.63;2.38;;;;;;;25.17;49.07;101860.75;5057116;28;20090;-74
2022/07/13 09:50:39;;;;;;;4.97;2.30;;;;;;;25.21;50.52;101867.53;5055280;28;20488;-74
2022/07/13 09:53:25;;;;;;;5.00;2.58;;;;;;;25.20;49.69;101872.03;5058560;28;20024;-74
2022/07/13 09:55:52;;;;;;;4.63;2.50;;;;;;;25.15;49.38;101867.03;5061132;28;20029;-74
2022/07/13 09:58:25;;;;;;;5.90;2.40;;;;;;;25.15;50.54;101868.84;5060909;28;20029;-74
2022/07/13 10:00:53;;;;;;;6.05;2.70;;;;;;;25.11;49.36;101878.00;5061881;28;20024;-74
2022/07/13 10:03:19;;;;;;;4.35;2.40;;;;;;;25.04;50.01;101877.59;5062117;28;20104;-75
2022/07/13 10:05:44;;;;;;;4.25;2.55;;;;;;;25.03;49.36;101867.06;5060730;28;20119;-74
2022/07/13 10:08:10;;;;;;;6.25;2.40;;;;;;;25.04;49.73;101868.75;5060163;28;20034;-74
2022/07/13 10:10:37;;;;;;;3.85;2.30;;;;;;;25.07;50.09;101860.56;5059134;28;20028;-74
2022/07/13 10:13:05;;;;;;;6.40;2.45;;;;;;;25.16;49.77;101859.88;5058342;28;20211;-74
2022/07/13 10:15:30;;;;;;;4.35;2.20;;;;;;;25.26;48.43;101863.59;5056204;28;20146;-74
2022/07/13 10:17:56;;;;;;;3.97;2.20;;;;;;;25.38;47.88;101871.66;5059553;28;20096;-74
2022/07/13 10:20:25;;;;;;;5.28;2.15;;;;;;;25.43;47.04;101881.03;5056844;28;20036;-74
2022/07/13 10:22:51;;;;;;;4.45;2.00;;;;;;;25.47;47.82;101873.69;5057541;28;20036;-75
2022/07/13 10:25:18;;;;;;;4.15;2.10;;;;;;;25.49;46.14;101871.75;5059099;28;20025;-74
2022/07/13 10:27:44;;;;;;;5.88;2.28;;;;;;;25.52;45.85;101871.53;5061264;28;20068;-75
2022/07/13 10:30:15;;;;;;;3.80;2.08;;;;;;;25.57;47.79;101861.41;5061475;28;20024;-74
2022/07/13 10:32:42;;;;;;;4.75;2.00;;;;;;;25.65;46.02;101868.81;5059625;28;20040;-74
2022/07/13 10:35:09;;;;;;;6.82;2.20;;;;;;;25.73;46.56;101868.25;5058125;28;20035;-74
2022/07/13 10:37:56;;;;;;;4.60;2.17;;;;;;;25.79;46.63;101875.78;5057135;28;20036;-74
2022/07/13 10:40:26;;;;;;;6.43;1.95;;;;;;;25.78;44.76;101887.44;5055820;28;20133;-74
2022/07/13 10:42:59;;;;;;;5.05;2.00;;;;;;;25.74;44.63;101881.44;5051545;28;20052;-74
2022/07/13 10:45:34;;;;;;;3.97;2.00;;;;;;;25.74;45.90;101880.63;5053890;28;20033;-74
2022/07/13 10:48:06;;;;;;;4.72;1.83;;;;;;;25.81;46.13;101879.19;5052909;28;20048;-75
2022/07/13 10:50:43;;;;;;;4.93;2.30;;;;;;;25.89;46.14;101892.81;5058457;28;20182;-74
2022/07/13 10:53:08;;;;;;;2.80;2.00;;;;;;;25.97;46.27;101884.22;5059676;28;20024;-74
2022/07/13 10:55:34;;;;;;;4.15;2.17;;;;;;;26.06;45.56;101880.03;5059740;28;20506;-74
2022/07/13 10:58:19;;;;;;;6.50;2.08;;;;;;;26.12;45.75;101884.94;5064804;28;20150;-74
2022/07/13 11:00:45;;;;;;;6.43;2.58;;;;;;;26.17;47.00;101882.75;5059033;28;20051;-74
2022/07/13 11:03:31;;;;;;;5.22;2.20;;;;;;;26.24;47.46;101884.94;5056725;28;20024;-74
2022/07/13 11:06:03;;;;;;;4.43;2.25;;;;;;;26.28;47.37;101887.25;5058193;28;20484;-74
2022/07/13 11:08:28;;;;;;;4.38;2.40;;;;;;;26.27;46.49;101882.91;5056046;28;20111;-74
2022/07/13 11:11:16;;;;;;;4.07;2.50;;;;;;;26.29;47.11;101885.47;5054267;28;20471;-74
2022/07/13 11:13:44;;;;;;;4.07;2.53;;;;;;;26.30;47.28;101888.00;5056432;28;20054;-75
2022/07/13 11:16:13;;;;;;;5.32;2.60;;;;;;;26.38;47.77;101883.91;5057002;28;20459;-74
2022/07/13 11:18:40;;;;;;;5.65;2.50;;;;;;;26.46;47.02;101886.81;5058403;28;20058;-74
2022/07/13 11:21:12;;;;;;;3.90;2.25;;;;;;;26.47;47.04;101886.72;5056954;28;20027;-74
2022/07/13 11:26:59;;;;;;;4.25;2.38;;;;;;;26.59;48.08;101886.72;5055939;28;20103;-74
2022/07/13 11:29:39;;;;;;;3.95;2.38;;;;;;;26.57;46.31;101880.66;5052091;28;20070;-74
2022/07/13 11:32:05;;;;;;;5.55;2.10;;;;;;;26.60;47.25;101883.09;5052797;28;20568;-74